sensor_id;sensor_type;location;lat;lon;timestamp;pressure;altitude;pressure_sealevel;temperature;humidity
29535;BME280;72082;52.650;8.116;2023-09-19T00:00:39;100118.31;;;16.76;83.74
29535;BME280;72082;52.650;8.116;2023-09-19T00:03:05;100123.34;;;16.79;84.07
29535;BME280;72082;52.650;8.116;2023-09-19T00:05:35;100130.16;;;16.82;83.62
29535;BME280;72082;52.650;8.116;2023-09-19T00:08:01;100130.09;;;16.83;83.88
29535;BME280;72082;52.650;8.116;2023-09-19T00:10:28;100125.03;;;16.80;83.66
29535;BME280;72082;52.650;8.116;2023-09-19T00:12:54;100131.25;;;16.76;83.95
29535;BME280;72082;52.650;8.116;2023-09-19T00:15:19;100131.28;;;16.75;84.33
29535;BME280;72082;52.650;8.116;2023-09-19T00:17:44;100139.03;;;16.76;84.10
29535;BME280;72082;52.650;8.116;2023-09-19T00:20:10;100138.88;;;16.79;84.20
29535;BME280;72082;52.650;8.116;2023-09-19T00:22:39;100135.59;;;16.76;84.20
29535;BME280;72082;52.650;8.116;2023-09-19T00:25:04;100142.50;;;16.75;84.11
29535;BME280;72082;52.650;8.116;2023-09-19T00:27:30;100143.34;;;16.76;84.20
29535;BME280;72082;52.650;8.116;2023-09-19T00:29:55;100143.34;;;16.76;84.48
29535;BME280;72082;52.650;8.116;2023-09-19T00:32:20;100161.38;;;16.77;84.33
29535;BME280;72082;52.650;8.116;2023-09-19T00:34:45;100154.41;;;16.79;84.39
29535;BME280;72082;52.650;8.116;2023-09-19T00:37:11;100159.44;;;16.84;84.11
29535;BME280;72082;52.650;8.116;2023-09-19T00:39:36;100166.22;;;16.86;84.23
29535;BME280;72082;52.650;8.116;2023-09-19T00:42:01;100160.78;;;16.92;83.80
29535;BME280;72082;52.650;8.116;2023-09-19T00:44:26;100161.53;;;16.96;83.71
29535;BME280;72082;52.650;8.116;2023-09-19T00:46:52;100182.13;;;16.99;83.59
29535;BME280;72082;52.650;8.116;2023-09-19T00:49:17;100176.00;;;17.01;83.44
29535;BME280;72082;52.650;8.116;2023-09-19T00:51:42;100173.22;;;17.06;83.42
29535;BME280;72082;52.650;8.116;2023-09-19T00:54:08;100192.19;;;17.06;83.22
29535;BME280;72082;52.650;8.116;2023-09-19T00:56:34;100209.34;;;17.09;83.56
29535;BME280;72082;52.650;8.116;2023-09-19T00:58:59;100209.63;;;17.01;83.51
29535;BME280;72082;52.650;8.116;2023-09-19T01:01:25;100213.31;;;16.73;84.09
29535;BME280;72082;52.650;8.116;2023-09-19T01:03:50;100217.69;;;16.46;84.96
29535;BME280;72082;52.650;8.116;2023-09-19T01:06:16;100217.47;;;16.29;85.27
29535;BME280;72082;52.650;8.116;2023-09-19T01:08:41;100230.78;;;16.17;85.50
29535;BME280;72082;52.650;8.116;2023-09-19T01:11:30;100215.09;;;15.98;85.64
29535;BME280;72082;52.650;8.116;2023-09-19T01:14:05;100223.56;;;15.77;85.90
29535;BME280;72082;52.650;8.116;2023-09-19T01:17:05;100213.56;;;15.66;86.26
29535;BME280;72082;52.650;8.116;2023-09-19T01:22:29;100226.16;;;15.49;86.38
29535;BME280;72082;52.650;8.116;2023-09-19T01:25:07;100235.66;;;15.49;85.95
29535;BME280;72082;52.650;8.116;2023-09-19T01:30:39;100228.72;;;15.51;85.18
29535;BME280;72082;52.650;8.116;2023-09-19T01:33:06;100229.56;;;15.51;84.98
29535;BME280;72082;52.650;8.116;2023-09-19T01:35:32;100231.22;;;15.52;84.87
29535;BME280;72082;52.650;8.116;2023-09-19T01:37:57;100243.19;;;15.55;84.90
29535;BME280;72082;52.650;8.116;2023-09-19T01:40:22;100238.88;;;15.55;84.79
29535;BME280;72082;52.650;8.116;2023-09-19T01:43:05;100235.41;;;15.56;84.97
29535;BME280;72082;52.650;8.116;2023-09-19T01:45:56;100240.47;;;15.59;84.35
29535;BME280;72082;52.650;8.116;2023-09-19T01:51:32;100242.00;;;15.65;84.50
29535;BME280;72082;52.650;8.116;2023-09-19T01:54:11;100240.19;;;15.68;84.17
29535;BME280;72082;52.650;8.116;2023-09-19T01:56:53;100242.66;;;15.71;84.32
29535;BME280;72082;52.650;8.116;2023-09-19T01:59:25;100233.06;;;15.75;83.90
29535;BME280;72082;52.650;8.116;2023-09-19T02:01:54;100238.03;;;15.81;84.05
29535;BME280;72082;52.650;8.116;2023-09-19T02:04:20;100249.03;;;15.87;83.77
29535;BME280;72082;52.650;8.116;2023-09-19T02:06:45;100245.38;;;15.93;83.62
29535;BME280;72082;52.650;8.116;2023-09-19T02:09:10;100248.69;;;15.98;83.52
29535;BME280;72082;52.650;8.116;2023-09-19T02:11:36;100249.41;;;16.01;83.34
29535;BME280;72082;52.650;8.116;2023-09-19T02:14:01;100251.91;;;16.04;83.62
29535;BME280;72082;52.650;8.116;2023-09-19T02:16:26;100257.00;;;16.06;83.61
29535;BME280;72082;52.650;8.116;2023-09-19T02:18:51;100251.00;;;16.05;83.69
29535;BME280;72082;52.650;8.116;2023-09-19T02:21:17;100251.03;;;16.04;83.98
29535;BME280;72082;52.650;8.116;2023-09-19T02:23:44;100255.44;;;16.02;83.89
29535;BME280;72082;52.650;8.116;2023-09-19T02:26:09;100256.38;;;15.99;83.94
29535;BME280;72082;52.650;8.116;2023-09-19T02:28:34;100265.06;;;15.97;84.34
29535;BME280;72082;52.650;8.116;2023-09-19T02:30:59;100273.00;;;15.92;84.68
29535;BME280;72082;52.650;8.116;2023-09-19T02:33:25;100265.34;;;15.88;84.81
29535;BME280;72082;52.650;8.116;2023-09-19T02:35:55;100263.03;;;15.80;85.08
29535;BME280;72082;52.650;8.116;2023-09-19T02:38:20;100266.72;;;15.73;85.15
29535;BME280;72082;52.650;8.116;2023-09-19T02:40:45;100271.25;;;15.67;85.49
29535;BME280;72082;52.650;8.116;2023-09-19T02:43:10;100268.84;;;15.61;85.82
29535;BME280;72082;52.650;8.116;2023-09-19T02:45:36;100276.75;;;15.56;85.96
29535;BME280;72082;52.650;8.116;2023-09-19T02:48:01;100270.81;;;15.53;85.98
29535;BME280;72082;52.650;8.116;2023-09-19T02:50:26;100276.13;;;15.48;85.87
29535;BME280;72082;52.650;8.116;2023-09-19T02:52:51;100278.75;;;15.45;85.94
29535;BME280;72082;52.650;8.116;2023-09-19T02:55:18;100271.97;;;15.42;86.08
29535;BME280;72082;52.650;8.116;2023-09-19T02:57:50;100290.13;;;15.39;86.37
29535;BME280;72082;52.650;8.116;2023-09-19T03:00:18;100283.22;;;15.40;86.19
29535;BME280;72082;52.650;8.116;2023-09-19T03:02:44;100283.22;;;15.40;86.15
29535;BME280;72082;52.650;8.116;2023-09-19T03:05:09;100288.38;;;15.40;86.27
29535;BME280;72082;52.650;8.116;2023-09-19T03:07:34;100284.16;;;15.37;86.10
29535;BME280;72082;52.650;8.116;2023-09-19T03:09:59;100283.41;;;15.34;86.15
29535;BME280;72082;52.650;8.116;2023-09-19T03:12:28;100280.91;;;15.31;86.42
29535;BME280;72082;52.650;8.116;2023-09-19T03:14:53;100280.88;;;15.32;86.19
29535;BME280;72082;52.650;8.116;2023-09-19T03:17:18;100286.03;;;15.32;86.03
29535;BME280;72082;52.650;8.116;2023-09-19T03:19:43;100300.69;;;15.32;85.85
29535;BME280;72082;52.650;8.116;2023-09-19T03:22:08;100310.09;;;15.33;86.08
29535;BME280;72082;52.650;8.116;2023-09-19T03:24:34;100313.53;;;15.33;85.78
29535;BME280;72082;52.650;8.116;2023-09-19T03:26:59;100307.50;;;15.34;85.64
29535;BME280;72082;52.650;8.116;2023-09-19T03:29:24;100316.09;;;15.35;85.67
29535;BME280;72082;52.650;8.116;2023-09-19T03:31:50;100320.41;;;15.34;85.83
29535;BME280;72082;52.650;8.116;2023-09-19T03:34:15;100316.16;;;15.32;86.13
29535;BME280;72082;52.650;8.116;2023-09-19T03:36:40;100309.34;;;15.29;85.70
29535;BME280;72082;52.650;8.116;2023-09-19T03:39:05;100307.63;;;15.30;85.98
29535;BME280;72082;52.650;8.116;2023-09-19T03:41:31;100299.91;;;15.28;86.45
29535;BME280;72082;52.650;8.116;2023-09-19T03:43:57;100307.72;;;15.27;85.53
29535;BME280;72082;52.650;8.116;2023-09-19T03:46:22;100309.50;;;15.25;86.07
29535;BME280;72082;52.650;8.116;2023-09-19T03:48:47;100303.50;;;15.24;86.04
29535;BME280;72082;52.650;8.116;2023-09-19T03:51:12;100306.09;;;15.23;86.14
29535;BME280;72082;52.650;8.116;2023-09-19T03:53:38;100301.84;;;15.22;86.02
29535;BME280;72082;52.650;8.116;2023-09-19T03:56:03;100300.13;;;15.21;86.21
29535;BME280;72082;52.650;8.116;2023-09-19T03:58:28;100302.81;;;15.18;86.08
29535;BME280;72082;52.650;8.116;2023-09-19T04:00:57;100308.81;;;15.18;86.28
29535;BME280;72082;52.650;8.116;2023-09-19T04:03:22;100320.88;;;15.18;86.57
29535;BME280;72082;52.650;8.116;2023-09-19T04:05:47;100317.44;;;15.17;86.05
29535;BME280;72082;52.650;8.116;2023-09-19T04:08:13;100320.06;;;15.16;86.33
29535;BME280;72082;52.650;8.116;2023-09-19T04:10:38;100317.50;;;15.16;86.07
29535;BME280;72082;52.650;8.116;2023-09-19T04:13:03;100316.69;;;15.14;86.26
29535;BME280;72082;52.650;8.116;2023-09-19T04:15:29;100308.97;;;15.14;86.34
29535;BME280;72082;52.650;8.116;2023-09-19T04:17:54;100302.16;;;15.11;86.26
29535;BME280;72082;52.650;8.116;2023-09-19T04:20:19;100298.72;;;15.11;86.16
29535;BME280;72082;52.650;8.116;2023-09-19T04:22:45;100293.63;;;15.08;86.36
29535;BME280;72082;52.650;8.116;2023-09-19T04:25:11;100311.78;;;15.05;86.39
29535;BME280;72082;52.650;8.116;2023-09-19T04:27:36;100317.88;;;15.02;86.66
29535;BME280;72082;52.650;8.116;2023-09-19T04:30:01;100334.28;;;15.00;86.72
29535;BME280;72082;52.650;8.116;2023-09-19T04:32:29;100325.75;;;14.98;86.83
29535;BME280;72082;52.650;8.116;2023-09-19T04:34:55;100341.31;;;14.95;86.96
29535;BME280;72082;52.650;8.116;2023-09-19T04:37:20;100331.06;;;14.93;87.02
29535;BME280;72082;52.650;8.116;2023-09-19T04:39:45;100335.38;;;14.93;87.09
29535;BME280;72082;52.650;8.116;2023-09-19T04:42:10;100328.56;;;14.90;86.85
29535;BME280;72082;52.650;8.116;2023-09-19T04:44:37;100331.19;;;14.89;87.03
29535;BME280;72082;52.650;8.116;2023-09-19T04:47:02;100330.34;;;14.87;87.04
29535;BME280;72082;52.650;8.116;2023-09-19T04:49:28;100333.91;;;14.82;87.11
29535;BME280;72082;52.650;8.116;2023-09-19T04:51:53;100343.47;;;14.79;87.24
29535;BME280;72082;52.650;8.116;2023-09-19T04:54:18;100347.13;;;14.70;88.92
29535;BME280;72082;52.650;8.116;2023-09-19T04:56:43;100351.41;;;14.71;89.16
29535;BME280;72082;52.650;8.116;2023-09-19T04:59:09;100360.03;;;14.70;89.00
29535;BME280;72082;52.650;8.116;2023-09-19T05:01:34;100370.34;;;14.70;88.63
29535;BME280;72082;52.650;8.116;2023-09-19T05:03:59;100368.69;;;14.68;88.65
29535;BME280;72082;52.650;8.116;2023-09-19T05:06:24;100362.72;;;14.66;88.56
29535;BME280;72082;52.650;8.116;2023-09-19T05:08:50;100366.28;;;14.62;88.76
29535;BME280;72082;52.650;8.116;2023-09-19T05:11:15;100375.81;;;14.60;88.58
29535;BME280;72082;52.650;8.116;2023-09-19T05:13:41;100382.69;;;14.59;88.62
29535;BME280;72082;52.650;8.116;2023-09-19T05:16:06;100382.69;;;14.59;88.45
29535;BME280;72082;52.650;8.116;2023-09-19T05:18:31;100382.69;;;14.59;88.40
29535;BME280;72082;52.650;8.116;2023-09-19T05:20:56;100380.09;;;14.59;88.58
29535;BME280;72082;52.650;8.116;2023-09-19T05:23:21;100377.53;;;14.59;88.45
29535;BME280;72082;52.650;8.116;2023-09-19T05:25:47;100376.63;;;14.60;88.33
29535;BME280;72082;52.650;8.116;2023-09-19T05:28:12;100369.75;;;14.61;88.27
29535;BME280;72082;52.650;8.116;2023-09-19T05:30:37;100370.59;;;14.61;88.20
29535;BME280;72082;52.650;8.116;2023-09-19T05:33:03;100379.13;;;14.63;87.90
29535;BME280;72082;52.650;8.116;2023-09-19T05:35:28;100384.34;;;14.62;87.85
29535;BME280;72082;52.650;8.116;2023-09-19T05:37:54;100373.13;;;14.63;87.95
29535;BME280;72082;52.650;8.116;2023-09-19T05:40:19;100367.09;;;14.64;87.49
29535;BME280;72082;52.650;8.116;2023-09-19T05:42:45;100373.03;;;14.67;87.81
29535;BME280;72082;52.650;8.116;2023-09-19T05:45:11;100373.81;;;14.69;87.45
29535;BME280;72082;52.650;8.116;2023-09-19T05:47:37;100381.44;;;14.74;87.50
29535;BME280;72082;52.650;8.116;2023-09-19T05:50:02;100377.00;;;14.79;87.16
29535;BME280;72082;52.650;8.116;2023-09-19T05:52:27;100389.69;;;14.87;86.91
29535;BME280;72082;52.650;8.116;2023-09-19T05:54:52;100390.41;;;14.92;86.80
29535;BME280;72082;52.650;8.116;2023-09-19T05:57:17;100394.63;;;14.96;86.68
29535;BME280;72082;52.650;8.116;2023-09-19T05:59:43;100395.44;;;14.98;86.03
29535;BME280;72082;52.650;8.116;2023-09-19T06:02:08;100413.41;;;15.01;86.23
29535;BME280;72082;52.650;8.116;2023-09-19T06:04:33;100411.69;;;15.00;86.33
29535;BME280;72082;52.650;8.116;2023-09-19T06:06:58;100410.91;;;14.98;86.10
29535;BME280;72082;52.650;8.116;2023-09-19T06:09:24;100413.56;;;14.95;86.55
29535;BME280;72082;52.650;8.116;2023-09-19T06:11:49;100410.19;;;14.93;86.62
29535;BME280;72082;52.650;8.116;2023-09-19T06:14:14;100408.59;;;14.89;86.75
29535;BME280;72082;52.650;8.116;2023-09-19T06:16:39;100405.19;;;14.87;87.00
29535;BME280;72082;52.650;8.116;2023-09-19T06:19:05;100406.09;;;14.84;87.02
29535;BME280;72082;52.650;8.116;2023-09-19T06:21:30;100404.44;;;14.83;87.02
29535;BME280;72082;52.650;8.116;2023-09-19T06:23:55;100413.81;;;14.86;86.98
29535;BME280;72082;52.650;8.116;2023-09-19T06:26:20;100406.88;;;14.88;86.66
29535;BME280;72082;52.650;8.116;2023-09-19T06:28:46;100399.94;;;14.90;86.14
29535;BME280;72082;52.650;8.116;2023-09-19T06:31:12;100395.50;;;14.95;86.28
29535;BME280;72082;52.650;8.116;2023-09-19T06:33:37;100404.88;;;14.97;86.15
29535;BME280;72082;52.650;8.116;2023-09-19T06:36:03;100401.31;;;15.03;85.87
29535;BME280;72082;52.650;8.116;2023-09-19T06:38:28;100400.31;;;15.08;86.11
29535;BME280;72082;52.650;8.116;2023-09-19T06:40:53;100409.63;;;15.14;85.73
29535;BME280;72082;52.650;8.116;2023-09-19T06:43:18;100414.63;;;15.20;85.17
29535;BME280;72082;52.650;8.116;2023-09-19T06:45:44;100417.91;;;15.25;85.31
29535;BME280;72082;52.650;8.116;2023-09-19T06:48:10;100438.38;;;15.31;85.23
29535;BME280;72082;52.650;8.116;2023-09-19T06:50:35;100437.34;;;15.38;84.91
29535;BME280;72082;52.650;8.116;2023-09-19T06:53:00;100440.59;;;15.44;84.62
29535;BME280;72082;52.650;8.116;2023-09-19T06:55:26;100424.91;;;15.52;84.50
29535;BME280;72082;52.650;8.116;2023-09-19T06:57:51;100437.59;;;15.61;84.23
29535;BME280;72082;52.650;8.116;2023-09-19T07:00:16;100439.09;;;15.68;84.23
29535;BME280;72082;52.650;8.116;2023-09-19T07:02:42;100442.31;;;15.75;84.17
29535;BME280;72082;52.650;8.116;2023-09-19T07:05:08;100450.75;;;15.81;83.70
29535;BME280;72082;52.650;8.116;2023-09-19T07:07:33;100449.75;;;15.87;83.82
29535;BME280;72082;52.650;8.116;2023-09-19T07:09:58;100445.28;;;15.92;83.84
29535;BME280;72082;52.650;8.116;2023-09-19T07:12:23;100465.00;;;15.94;83.63
29535;BME280;72082;52.650;8.116;2023-09-19T07:14:48;100449.53;;;15.93;83.70
29535;BME280;72082;52.650;8.116;2023-09-19T07:17:14;100459.13;;;15.89;83.75
29535;BME280;72082;52.650;8.116;2023-09-19T07:19:39;100454.94;;;15.85;83.81
29535;BME280;72082;52.650;8.116;2023-09-19T07:22:04;100464.47;;;15.83;84.08
29535;BME280;72082;52.650;8.116;2023-09-19T07:24:29;100462.81;;;15.82;83.88
29535;BME280;72082;52.650;8.116;2023-09-19T07:26:55;100457.63;;;15.82;84.03
29535;BME280;72082;52.650;8.116;2023-09-19T07:29:20;100460.94;;;15.87;84.06
29535;BME280;72082;52.650;8.116;2023-09-19T07:31:45;100470.31;;;15.90;83.94
29535;BME280;72082;52.650;8.116;2023-09-19T07:34:10;100472.00;;;15.91;83.68
29535;BME280;72082;52.650;8.116;2023-09-19T07:36:36;100447.81;;;15.93;83.84
29535;BME280;72082;52.650;8.116;2023-09-19T07:39:01;100451.16;;;15.97;83.57
29535;BME280;72082;52.650;8.116;2023-09-19T07:41:26;100452.72;;;16.02;83.55
29535;BME280;72082;52.650;8.116;2023-09-19T07:43:51;100467.31;;;16.03;83.58
29535;BME280;72082;52.650;8.116;2023-09-19T07:46:16;100469.91;;;16.03;83.51
29535;BME280;72082;52.650;8.116;2023-09-19T07:48:42;100465.56;;;16.05;83.72
29535;BME280;72082;52.650;8.116;2023-09-19T07:51:08;100466.34;;;16.08;83.64
29535;BME280;72082;52.650;8.116;2023-09-19T07:53:36;100469.63;;;16.13;83.61
29535;BME280;72082;52.650;8.116;2023-09-19T07:56:06;100455.69;;;16.18;83.66
29535;BME280;72082;52.650;8.116;2023-09-19T07:58:31;100459.72;;;16.27;83.38
29535;BME280;72082;52.650;8.116;2023-09-19T08:01:08;100455.19;;;16.33;83.26
29535;BME280;72082;52.650;8.116;2023-09-19T08:03:34;100465.38;;;16.38;82.98
29535;BME280;72082;52.650;8.116;2023-09-19T08:06:02;100457.59;;;16.39;82.80
29535;BME280;72082;52.650;8.116;2023-09-19T08:08:27;100455.66;;;16.46;82.46
29535;BME280;72082;52.650;8.116;2023-09-19T08:10:56;100433.88;;;16.54;82.74
29535;BME280;72082;52.650;8.116;2023-09-19T08:13:25;100450.88;;;16.61;82.58
29535;BME280;72082;52.650;8.116;2023-09-19T08:15:51;100459.28;;;16.68;82.50
29535;BME280;72082;52.650;8.116;2023-09-19T08:18:17;100458.28;;;16.72;82.46
29535;BME280;72082;52.650;8.116;2023-09-19T08:20:42;100458.97;;;16.77;82.18
29535;BME280;72082;52.650;8.116;2023-09-19T08:23:07;100469.06;;;16.85;82.43
29535;BME280;72082;52.650;8.116;2023-09-19T08:25:33;100459.38;;;16.91;82.06
29535;BME280;72082;52.650;8.116;2023-09-19T08:27:58;100472.22;;;16.94;82.35
29535;BME280;72082;52.650;8.116;2023-09-19T08:30:24;100456.63;;;16.96;82.12
29535;BME280;72082;52.650;8.116;2023-09-19T08:33:00;100455.66;;;16.98;82.73
29535;BME280;72082;52.650;8.116;2023-09-19T08:35:27;100466.81;;;17.00;82.29
29535;BME280;72082;52.650;8.116;2023-09-19T08:37:55;100466.63;;;17.06;82.30
29535;BME280;72082;52.650;8.116;2023-09-19T08:40:20;100466.25;;;17.17;82.15
29535;BME280;72082;52.650;8.116;2023-09-19T08:42:55;100485.06;;;17.22;82.00
29535;BME280;72082;52.650;8.116;2023-09-19T08:45:22;100465.91;;;17.26;81.92
29535;BME280;72082;52.650;8.116;2023-09-19T08:47:57;100457.91;;;17.34;81.74
29535;BME280;72082;52.650;8.116;2023-09-19T08:50:29;100470.63;;;17.40;81.84
29535;BME280;72082;52.650;8.116;2023-09-19T08:52:55;100462.69;;;17.44;81.67
29535;BME280;72082;52.650;8.116;2023-09-19T08:55:23;100466.88;;;17.48;81.73
29535;BME280;72082;52.650;8.116;2023-09-19T08:57:59;100481.38;;;17.52;81.76
29535;BME280;72082;52.650;8.116;2023-09-19T09:00:26;100468.44;;;17.54;81.51
29535;BME280;72082;52.650;8.116;2023-09-19T09:02:52;100482.84;;;17.61;81.47
29535;BME280;72082;52.650;8.116;2023-09-19T09:05:17;100472.16;;;17.70;81.50
29535;BME280;72082;52.650;8.116;2023-09-19T09:07:43;100474.56;;;17.74;81.62
29535;BME280;72082;52.650;8.116;2023-09-19T09:10:09;100482.94;;;17.81;81.47
29535;BME280;72082;52.650;8.116;2023-09-19T09:12:35;100485.34;;;17.87;81.26
29535;BME280;72082;52.650;8.116;2023-09-19T09:15:00;100490.28;;;17.93;81.06
29535;BME280;72082;52.650;8.116;2023-09-19T09:17:26;100490.97;;;17.98;81.24
29535;BME280;72082;52.650;8.116;2023-09-19T09:19:54;100483.22;;;17.97;81.31
29535;BME280;72082;52.650;8.116;2023-09-19T09:22:20;100483.31;;;17.95;81.57
29535;BME280;72082;52.650;8.116;2023-09-19T09:27:17;100483.97;;;18.00;81.28
29535;BME280;72082;52.650;8.116;2023-09-19T09:32:21;100473.13;;;18.12;81.47
29535;BME280;72082;52.650;8.116;2023-09-19T09:34:56;100486.81;;;18.16;81.48
29535;BME280;72082;52.650;8.116;2023-09-19T09:37:23;100471.16;;;18.19;81.62
29535;BME280;72082;52.650;8.116;2023-09-19T09:39:50;100470.00;;;18.26;81.57
29535;BME280;72082;52.650;8.116;2023-09-19T09:42:35;100460.28;;;18.31;81.42
29535;BME280;72082;52.650;8.116;2023-09-19T09:47:48;100482.22;;;18.45;81.07
29535;BME280;72082;52.650;8.116;2023-09-19T09:50:13;100479.50;;;18.48;81.15
29535;BME280;72082;52.650;8.116;2023-09-19T09:52:46;100484.56;;;18.52;80.82
29535;BME280;72082;52.650;8.116;2023-09-19T09:55:11;100478.28;;;18.57;80.92
29535;BME280;72082;52.650;8.116;2023-09-19T09:57:36;100490.06;;;18.66;80.77
29535;BME280;72082;52.650;8.116;2023-09-19T10:00:02;100477.94;;;18.66;80.66
29535;BME280;72082;52.650;8.116;2023-09-19T10:02:29;100484.69;;;18.70;80.72
29535;BME280;72082;52.650;8.116;2023-09-19T10:04:56;100485.41;;;18.74;80.54
29535;BME280;72082;52.650;8.116;2023-09-19T10:07:31;100490.81;;;18.69;80.76
29535;BME280;72082;52.650;8.116;2023-09-19T10:09:56;100474.75;;;18.80;80.71
29535;BME280;72082;52.650;8.116;2023-09-19T10:12:22;100464.56;;;18.95;80.28
29535;BME280;72082;52.650;8.116;2023-09-19T10:14:47;100477.13;;;19.06;80.23
29535;BME280;72082;52.650;8.116;2023-09-19T10:17:14;100463.22;;;19.07;79.97
29535;BME280;72082;52.650;8.116;2023-09-19T10:19:46;100471.75;;;19.10;79.79
29535;BME280;72082;52.650;8.116;2023-09-19T10:22:17;100468.22;;;19.11;79.93
29535;BME280;72082;52.650;8.116;2023-09-19T10:24:45;100481.94;;;19.15;80.02
29535;BME280;72082;52.650;8.116;2023-09-19T10:27:11;100473.25;;;19.16;80.05
29535;BME280;72082;52.650;8.116;2023-09-19T10:29:39;100470.25;;;19.25;79.64
29535;BME280;72082;52.650;8.116;2023-09-19T10:32:05;100471.44;;;19.38;79.34
29535;BME280;72082;52.650;8.116;2023-09-19T10:34:37;100465.63;;;19.52;79.32
29535;BME280;72082;52.650;8.116;2023-09-19T10:37:04;100476.53;;;19.60;78.85
29535;BME280;72082;52.650;8.116;2023-09-19T10:39:32;100477.38;;;19.60;78.93
29535;BME280;72082;52.650;8.116;2023-09-19T10:42:01;100465.16;;;19.62;78.92
29535;BME280;72082;52.650;8.116;2023-09-19T10:44:28;100471.69;;;19.71;79.04
29535;BME280;72082;52.650;8.116;2023-09-19T10:46:56;100477.47;;;19.78;78.79
29535;BME280;72082;52.650;8.116;2023-09-19T10:49:22;100475.63;;;19.80;79.12
29535;BME280;72082;52.650;8.116;2023-09-19T10:51:51;100471.00;;;19.86;79.05
29535;BME280;72082;52.650;8.116;2023-09-19T10:54:19;100465.50;;;19.92;78.84
29535;BME280;72082;52.650;8.116;2023-09-19T10:56:50;100462.34;;;19.86;78.63
29535;BME280;72082;52.650;8.116;2023-09-19T10:59:17;100469.44;;;19.82;78.87
29535;BME280;72082;52.650;8.116;2023-09-19T11:01:44;100475.41;;;19.84;79.74
29535;BME280;72082;52.650;8.116;2023-09-19T11:04:28;100471.81;;;19.87;78.96
29535;BME280;72082;52.650;8.116;2023-09-19T11:09:54;100498.78;;;19.86;78.82
29535;BME280;72082;52.650;8.116;2023-09-19T11:14:53;100472.69;;;20.06;78.39
29535;BME280;72082;52.650;8.116;2023-09-19T11:30:30;100451.34;;;21.55;76.33
29535;BME280;72082;52.650;8.116;2023-09-19T11:33:19;100438.56;;;21.99;75.76
29535;BME280;72082;52.650;8.116;2023-09-19T11:43:46;100464.91;;;21.29;77.99
29535;BME280;72082;52.650;8.116;2023-09-19T11:46:12;100460.34;;;21.17;78.11
29535;BME280;72082;52.650;8.116;2023-09-19T11:48:38;100453.34;;;21.00;78.51
29535;BME280;72082;52.650;8.116;2023-09-19T11:51:11;100463.94;;;21.14;78.44
29535;BME280;72082;52.650;8.116;2023-09-19T11:53:36;100448.41;;;21.28;78.04
29535;BME280;72082;52.650;8.116;2023-09-19T11:56:05;100448.66;;;21.89;76.93
29535;BME280;72082;52.650;8.116;2023-09-19T11:58:31;100449.16;;;22.11;75.85
29535;BME280;72082;52.650;8.116;2023-09-19T12:00:58;100432.41;;;22.61;75.44
29535;BME280;72082;52.650;8.116;2023-09-19T12:03:29;100424.47;;;22.92;74.97
29535;BME280;72082;52.650;8.116;2023-09-19T12:05:54;100446.97;;;22.95;74.90
29535;BME280;72082;52.650;8.116;2023-09-19T12:08:19;100433.97;;;22.49;75.73
29535;BME280;72082;52.650;8.116;2023-09-19T12:10:49;100438.72;;;21.96;77.21
29535;BME280;72082;52.650;8.116;2023-09-19T12:13:18;100429.66;;;21.70;78.05
29535;BME280;72082;52.650;8.116;2023-09-19T12:15:43;100450.09;;;22.26;77.47
29535;BME280;72082;52.650;8.116;2023-09-19T12:18:09;100435.22;;;22.42;75.97
29535;BME280;72082;52.650;8.116;2023-09-19T12:20:44;100429.00;;;22.29;76.20
29535;BME280;72082;52.650;8.116;2023-09-19T12:23:13;100424.19;;;22.37;76.51
29535;BME280;72082;52.650;8.116;2023-09-19T12:25:42;100428.06;;;22.46;76.43
29535;BME280;72082;52.650;8.116;2023-09-19T12:28:08;100425.50;;;22.60;75.80
29535;BME280;72082;52.650;8.116;2023-09-19T12:30:33;100424.72;;;22.58;75.82
29535;BME280;72082;52.650;8.116;2023-09-19T12:32:58;100426.72;;;22.84;75.49
29535;BME280;72082;52.650;8.116;2023-09-19T12:35:31;100409.13;;;23.16;74.48
29535;BME280;72082;52.650;8.116;2023-09-19T12:37:56;100406.28;;;22.91;75.07
29535;BME280;72082;52.650;8.116;2023-09-19T12:40:22;100399.81;;;22.68;75.62
29535;BME280;72082;52.650;8.116;2023-09-19T12:42:49;100411.66;;;22.44;76.38
29535;BME280;72082;52.650;8.116;2023-09-19T12:45:15;100421.28;;;22.28;76.35
29535;BME280;72082;52.650;8.116;2023-09-19T12:51:09;100431.91;;;21.45;77.87
29535;BME280;72082;52.650;8.116;2023-09-19T12:53:36;100426.13;;;21.23;78.24
29535;BME280;72082;52.650;8.116;2023-09-19T12:56:01;100421.41;;;21.14;78.28
29535;BME280;72082;52.650;8.116;2023-09-19T12:58:28;100411.41;;;21.22;78.08
29535;BME280;72082;52.650;8.116;2023-09-19T13:00:53;100393.22;;;21.53;76.81
29535;BME280;72082;52.650;8.116;2023-09-19T13:05:50;100395.69;;;22.19;75.12
29535;BME280;72082;52.650;8.116;2023-09-19T13:08:27;100384.88;;;22.25;74.54
29535;BME280;72082;52.650;8.116;2023-09-19T13:11:12;100407.06;;;22.18;74.89
29535;BME280;72082;52.650;8.116;2023-09-19T13:13:42;100418.50;;;22.15;74.83
29535;BME280;72082;52.650;8.116;2023-09-19T13:16:08;100391.94;;;22.38;74.90
29535;BME280;72082;52.650;8.116;2023-09-19T13:18:50;100383.25;;;23.11;73.36
29535;BME280;72082;52.650;8.116;2023-09-19T13:21:16;100384.78;;;23.44;72.82
29535;BME280;72082;52.650;8.116;2023-09-19T13:23:42;100377.84;;;23.98;71.81
29535;BME280;72082;52.650;8.116;2023-09-19T13:26:07;100397.13;;;24.63;71.56
29535;BME280;72082;52.650;8.116;2023-09-19T13:28:33;100381.56;;;24.99;70.78
29535;BME280;72082;52.650;8.116;2023-09-19T13:30:59;100379.56;;;24.38;71.36
29535;BME280;72082;52.650;8.116;2023-09-19T13:33:24;100403.44;;;23.52;73.88
29535;BME280;72082;52.650;8.116;2023-09-19T13:35:49;100399.94;;;22.81;75.56
29535;BME280;72082;52.650;8.116;2023-09-19T13:38:14;100402.31;;;22.24;77.21